Time,TemperatureF,DewpointF,PressureIn,WindDirection,WindDirectionDegrees,WindSpeedMPH,WindSpeedGustMPH,Humidity,HourlyPrecipIn,Conditions,Clouds,dailyrainin,SolarRadiationWatts/m^2,SoftwareType,DateUTC
2013-03-01 07:42:00,28.0,21.0,-100.00,SSE,152,0.0,1.0,74,-99.99,,,-99.99,113.550003,,2013-03-01 15:42:00,
2013-03-01 07:52:00,28.0,21.0,-100.00,SSE,152,0.0,1.0,74,-99.99,,,-99.99,113.550003,,2013-03-01 15:52:00,
2013-03-01 08:01:00,28.0,21.0,-100.00,SSE,152,0.0,1.0,74,-99.99,,,-99.99,113.550003,,2013-03-01 16:01:00,
2013-03-01 08:11:00,28.0,21.0,-100.00,SSE,152,0.0,1.0,74,-99.99,,,-99.99,113.550003,,2013-03-01 16:11:00,
2013-03-01 08:41:00,42.0,30.0,-100.00,SW,220,3.0,5.0,61,-99.99,,,0.00,299.500000,,2013-03-01 16:41:00,
2013-03-01 08:52:00,42.0,30.0,-100.00,SW,220,3.0,5.0,61,-99.99,,,0.00,299.500000,,2013-03-01 16:52:00,
2013-03-01 09:01:00,42.0,30.0,-100.00,SW,220,3.0,5.0,61,-99.99,,,0.00,299.500000,,2013-03-01 17:01:00,
2013-03-01 09:11:00,42.0,30.0,-100.00,SW,220,3.0,5.0,61,-99.99,,,0.00,299.500000,,2013-03-01 17:11:00,
2013-03-01 10:12:00,48.0,31.0,-100.00,WSW,244,3.0,5.0,52,-99.99,,,0.00,473.130005,,2013-03-01 18:12:00,
2013-03-01 10:31:00,53.0,32.0,-100.00,WSW,248,3.0,7.0,44,-99.99,,,-99.99,615.039978,,2013-03-01 18:31:00,
2013-03-01 10:41:00,53.0,32.0,-100.00,WSW,248,3.0,7.0,44,-99.99,,,-99.99,615.039978,,2013-03-01 18:41:00,
2013-03-01 10:52:00,53.0,32.0,-100.00,WSW,248,3.0,7.0,44,-99.99,,,-99.99,615.039978,,2013-03-01 18:52:00,
2013-03-01 11:01:00,53.0,32.0,-100.00,WSW,248,3.0,7.0,44,-99.99,,,-99.99,615.039978,,2013-03-01 19:01:00,
2013-03-01 11:11:00,53.0,32.0,-100.00,WSW,248,3.0,7.0,44,-99.99,,,-99.99,615.039978,,2013-03-01 19:11:00,
2013-03-01 11:42:00,57.0,32.0,-100.00,ESE,121,3.0,7.0,37,-99.99,,,0.00,707.080017,,2013-03-01 19:42:00,
2013-03-01 11:52:00,57.0,32.0,-100.00,ESE,121,3.0,7.0,37,-99.99,,,0.00,707.080017,,2013-03-01 19:52:00,
2013-03-01 12:01:00,57.0,32.0,-100.00,ESE,121,3.0,7.0,37,-99.99,,,0.00,707.080017,,2013-03-01 20:01:00,
2013-03-01 12:11:00,57.0,32.0,-100.00,ESE,121,3.0,7.0,37,-99.99,,,0.00,707.080017,,2013-03-01 20:11:00,
2013-03-01 12:41:00,60.0,30.0,-100.00,ENE,61,3.0,7.0,32,-99.99,,,0.00,739.739990,,2013-03-01 20:41:00,
2013-03-01 12:52:00,60.0,30.0,-100.00,ENE,61,3.0,7.0,32,-99.99,,,0.00,739.739990,,2013-03-01 20:52:00,
2013-03-01 13:01:00,60.0,30.0,-100.00,ENE,61,3.0,7.0,32,-99.99,,,0.00,739.739990,,2013-03-01 21:01:00,
2013-03-01 13:11:00,60.0,30.0,-100.00,ENE,61,3.0,7.0,32,-99.99,,,0.00,739.739990,,2013-03-01 21:11:00,
2013-03-01 13:31:00,63.0,29.0,-100.00,SE,145,3.0,9.0,27,-99.99,,,0.00,710.219971,,2013-03-01 21:31:00,
2013-03-01 13:41:00,63.0,29.0,-100.00,SE,145,3.0,9.0,27,-99.99,,,0.00,710.219971,,2013-03-01 21:41:00,
2013-03-01 13:52:00,63.0,29.0,-100.00,SE,145,3.0,9.0,27,-99.99,,,0.00,710.219971,,2013-03-01 21:52:00,
2013-03-01 14:01:00,63.0,29.0,-100.00,SE,145,3.0,9.0,27,-99.99,,,0.00,710.219971,,2013-03-01 22:01:00,
2013-03-01 14:11:00,63.0,29.0,-100.00,SE,145,3.0,9.0,27,-99.99,,,0.00,710.219971,,2013-03-01 22:11:00,
2013-03-01 14:31:00,65.0,29.0,-100.00,ESE,122,3.0,13.0,25,-99.99,,,0.00,617.710022,,2013-03-01 22:31:00,
2013-03-01 14:41:00,65.0,29.0,-100.00,ESE,122,3.0,13.0,25,-99.99,,,0.00,617.710022,,2013-03-01 22:41:00,
2013-03-01 14:52:00,65.0,29.0,-100.00,ESE,122,3.0,13.0,25,-99.99,,,0.00,617.710022,,2013-03-01 22:52:00,
2013-03-01 15:01:00,65.0,29.0,-100.00,ESE,122,3.0,13.0,25,-99.99,,,0.00,617.710022,,2013-03-01 23:01:00,
2013-03-01 15:11:00,65.0,29.0,-100.00,ESE,122,3.0,13.0,25,-99.99,,,0.00,617.710022,,2013-03-01 23:11:00,
2013-03-01 15:31:00,66.0,27.0,-100.00,North,9,3.0,5.0,23,-99.99,,,-99.99,470.109985,,2013-03-01 23:31:00,
2013-03-01 15:41:00,66.0,27.0,-100.00,North,9,3.0,5.0,23,-99.99,,,-99.99,470.109985,,2013-03-01 23:41:00,
2013-03-01 15:52:00,66.0,27.0,-100.00,North,9,3.0,5.0,23,-99.99,,,-99.99,470.109985,,2013-03-01 23:52:00,
2013-03-01 16:01:00,66.0,27.0,-100.00,North,9,3.0,5.0,23,-99.99,,,-99.99,470.109985,,2013-03-02 00:01:00,
2013-03-01 16:11:00,66.0,27.0,-100.00,North,9,3.0,5.0,23,-99.99,,,-99.99,470.109985,,2013-03-02 00:11:00,
2013-03-01 16:42:00,66.0,27.0,-100.00,East,84,3.0,9.0,22,-99.99,,,-99.99,296.359985,,2013-03-02 00:42:00,
2013-03-01 16:52:00,66.0,27.0,-100.00,East,84,3.0,9.0,22,-99.99,,,-99.99,296.359985,,2013-03-02 00:52:00,
2013-03-01 17:01:00,66.0,27.0,-100.00,East,84,3.0,9.0,22,-99.99,,,-99.99,296.359985,,2013-03-02 01:01:00,
2013-03-01 17:11:00,66.0,27.0,-100.00,East,84,3.0,9.0,22,-99.99,,,-99.99,296.359985,,2013-03-02 01:11:00,
2013-03-01 17:41:00,64.0,28.0,-100.00,NE,54,6.0,10.0,25,-99.99,,,-99.99,102.620003,,2013-03-02 01:41:00,
2013-03-01 17:52:00,64.0,28.0,-100.00,NE,54,6.0,10.0,25,-99.99,,,-99.99,102.620003,,2013-03-02 01:52:00,
2013-03-01 18:01:00,64.0,28.0,-100.00,NE,54,6.0,10.0,25,-99.99,,,-99.99,102.620003,,2013-03-02 02:01:00,
2013-03-01 18:11:00,64.0,28.0,-100.00,NE,54,6.0,10.0,25,-99.99,,,-99.99,102.620003,,2013-03-02 02:11:00,
2013-03-01 18:41:00,58.0,27.0,-100.00,ENE,61,3.0,5.0,30,-99.99,,,-99.99,0.120000,,2013-03-02 02:41:00,
2013-03-01 18:52:00,58.0,27.0,-100.00,ENE,61,3.0,5.0,30,-99.99,,,-99.99,0.120000,,2013-03-02 02:52:00,
2013-03-01 19:01:00,58.0,27.0,-100.00,ENE,61,3.0,5.0,30,-99.99,,,-99.99,0.120000,,2013-03-02 03:01:00,
2013-03-01 19:11:00,58.0,27.0,-100.00,ENE,61,3.0,5.0,30,-99.99,,,-99.99,0.120000,,2013-03-02 03:11:00,
2013-03-01 19:32:00,54.0,26.0,-100.00,NE,37,2.0,4.0,34,-99.99,,,-99.99,0.000000,,2013-03-02 03:32:00,
2013-03-01 19:41:00,54.0,26.0,-100.00,NE,37,2.0,4.0,34,-99.99,,,-99.99,0.000000,,2013-03-02 03:41:00,
2013-03-01 19:52:00,54.0,26.0,-100.00,NE,37,2.0,4.0,34,-99.99,,,-99.99,0.000000,,2013-03-02 03:52:00,
2013-03-01 20:01:00,54.0,26.0,-100.00,NE,37,2.0,4.0,34,-99.99,,,-99.99,0.000000,,2013-03-02 04:01:00,
2013-03-01 20:11:00,54.0,26.0,-100.00,NE,37,2.0,4.0,34,-99.99,,,-99.99,0.000000,,2013-03-02 04:11:00,
2013-03-01 20:32:00,51.0,26.0,-100.00,North,1,2.0,4.0,38,-99.99,,,-99.99,0.000000,,2013-03-02 04:32:00,
2013-03-01 20:41:00,51.0,26.0,-100.00,North,1,2.0,4.0,38,-99.99,,,-99.99,0.000000,,2013-03-02 04:41:00,
2013-03-01 20:52:00,51.0,26.0,-100.00,North,1,2.0,4.0,38,-99.99,,,-99.99,0.000000,,2013-03-02 04:52:00,
2013-03-01 21:01:00,51.0,26.0,-100.00,North,1,2.0,4.0,38,-99.99,,,-99.99,0.000000,,2013-03-02 05:01:00,
2013-03-01 21:12:00,51.0,26.0,-100.00,North,1,2.0,4.0,38,-99.99,,,-99.99,0.000000,,2013-03-02 05:12:00,
2013-03-01 21:32:00,41.0,25.0,-100.00,NW,306,3.0,5.0,52,-99.99,,,-99.99,0.120000,,2013-03-02 05:32:00,
2013-03-01 21:41:00,41.0,25.0,-100.00,NW,306,3.0,5.0,52,-99.99,,,-99.99,0.120000,,2013-03-02 05:41:00,
2013-03-01 21:52:00,41.0,25.0,-100.00,NW,306,3.0,5.0,52,-99.99,,,-99.99,0.120000,,2013-03-02 05:52:00,
2013-03-01 22:01:00,41.0,25.0,-100.00,NW,306,3.0,5.0,52,-99.99,,,-99.99,0.120000,,2013-03-02 06:01:00,
2013-03-01 22:11:00,41.0,25.0,-100.00,NW,306,3.0,5.0,52,-99.99,,,-99.99,0.120000,,2013-03-02 06:11:00,
2013-03-01 22:41:00,39.0,24.0,-100.00,WNW,287,1.0,2.0,55,-99.99,,,-99.99,0.230000,,2013-03-02 06:41:00,
2013-03-01 22:52:00,39.0,24.0,-100.00,WNW,287,1.0,2.0,55,-99.99,,,-99.99,0.230000,,2013-03-02 06:52:00,
2013-03-01 23:01:00,39.0,24.0,-100.00,WNW,287,1.0,2.0,55,-99.99,,,-99.99,0.230000,,2013-03-02 07:01:00,
2013-03-01 23:11:00,39.0,24.0,-100.00,WNW,287,1.0,2.0,55,-99.99,,,-99.99,0.230000,,2013-03-02 07:11:00,
2013-03-01 23:32:00,37.0,23.0,-100.00,WNW,291,3.0,4.0,55,-99.99,,,-99.99,0.120000,,2013-03-02 07:32:00,
2013-03-01 23:42:00,37.0,23.0,-100.00,WNW,291,3.0,4.0,55,-99.99,,,-99.99,0.120000,,2013-03-02 07:42:00,
2013-03-01 23:52:00,37.0,23.0,-100.00,WNW,291,3.0,4.0,55,-99.99,,,-99.99,0.120000,,2013-03-02 07:52:00,